sensor_id;sensor_type;location;lat;lon;timestamp;P1;durP1;ratioP1;P2;durP2;ratioP2
15317;SDS011;7759;52.528;13.346;2023-03-21T00:00:21;9.40;;;4.20;;
15317;SDS011;7759;52.528;13.346;2023-03-21T00:02:47;3.70;;;2.87;;
15317;SDS011;7759;52.528;13.346;2023-03-21T00:05:13;4.23;;;2.50;;
15317;SDS011;7759;52.528;13.346;2023-03-21T00:07:39;4.90;;;2.87;;
15317;SDS011;7759;52.528;13.346;2023-03-21T00:10:05;5.97;;;3.23;;
15317;SDS011;7759;52.528;13.346;2023-03-21T00:12:32;3.00;;;2.30;;
15317;SDS011;7759;52.528;13.346;2023-03-21T00:15:01;5.80;;;3.20;;
15317;SDS011;7759;52.528;13.346;2023-03-21T00:17:30;7.20;;;3.97;;
15317;SDS011;7759;52.528;13.346;2023-03-21T00:19:56;30.17;;;17.70;;
15317;SDS011;7759;52.528;13.346;2023-03-21T00:22:22;6.57;;;4.57;;
15317;SDS011;7759;52.528;13.346;2023-03-21T00:24:48;7.13;;;4.40;;
15317;SDS011;7759;52.528;13.346;2023-03-21T00:27:16;6.97;;;3.43;;
15317;SDS011;7759;52.528;13.346;2023-03-21T00:29:43;5.53;;;2.90;;
15317;SDS011;7759;52.528;13.346;2023-03-21T00:32:09;6.20;;;4.50;;
15317;SDS011;7759;52.528;13.346;2023-03-21T00:34:35;7.67;;;4.20;;
15317;SDS011;7759;52.528;13.346;2023-03-21T00:37:02;6.83;;;3.80;;
15317;SDS011;7759;52.528;13.346;2023-03-21T00:39:28;5.83;;;3.80;;
15317;SDS011;7759;52.528;13.346;2023-03-21T00:41:54;6.40;;;3.40;;
15317;SDS011;7759;52.528;13.346;2023-03-21T00:44:20;5.13;;;3.40;;
15317;SDS011;7759;52.528;13.346;2023-03-21T00:46:47;4.93;;;3.43;;
15317;SDS011;7759;52.528;13.346;2023-03-21T00:49:13;6.53;;;4.13;;
15317;SDS011;7759;52.528;13.346;2023-03-21T00:51:39;6.37;;;3.60;;
15317;SDS011;7759;52.528;13.346;2023-03-21T00:54:08;7.33;;;3.67;;
15317;SDS011;7759;52.528;13.346;2023-03-21T00:56:34;4.50;;;3.23;;
15317;SDS011;7759;52.528;13.346;2023-03-21T00:59:00;3.13;;;2.83;;
15317;SDS011;7759;52.528;13.346;2023-03-21T01:01:26;5.83;;;4.73;;
15317;SDS011;7759;52.528;13.346;2023-03-21T01:03:55;5.73;;;4.30;;
15317;SDS011;7759;52.528;13.346;2023-03-21T01:06:29;3.70;;;3.00;;
15317;SDS011;7759;52.528;13.346;2023-03-21T01:08:55;7.47;;;4.00;;
15317;SDS011;7759;52.528;13.346;2023-03-21T01:11:23;4.90;;;3.90;;
15317;SDS011;7759;52.528;13.346;2023-03-21T01:13:49;5.30;;;3.70;;
15317;SDS011;7759;52.528;13.346;2023-03-21T01:16:16;3.60;;;3.13;;
15317;SDS011;7759;52.528;13.346;2023-03-21T01:18:42;5.90;;;3.53;;
15317;SDS011;7759;52.528;13.346;2023-03-21T01:21:10;5.63;;;4.33;;
15317;SDS011;7759;52.528;13.346;2023-03-21T01:23:36;6.87;;;4.03;;
15317;SDS011;7759;52.528;13.346;2023-03-21T01:26:03;7.43;;;5.57;;
15317;SDS011;7759;52.528;13.346;2023-03-21T01:28:29;8.27;;;5.03;;
15317;SDS011;7759;52.528;13.346;2023-03-21T01:30:55;8.80;;;5.50;;
15317;SDS011;7759;52.528;13.346;2023-03-21T01:33:21;5.43;;;4.90;;
15317;SDS011;7759;52.528;13.346;2023-03-21T01:35:47;8.17;;;6.07;;
15317;SDS011;7759;52.528;13.346;2023-03-21T01:38:13;9.70;;;5.77;;
15317;SDS011;7759;52.528;13.346;2023-03-21T01:40:39;8.33;;;6.80;;
15317;SDS011;7759;52.528;13.346;2023-03-21T01:43:14;9.93;;;6.63;;
15317;SDS011;7759;52.528;13.346;2023-03-21T01:48:28;9.03;;;6.90;;
15317;SDS011;7759;52.528;13.346;2023-03-21T01:50:54;8.57;;;6.13;;
15317;SDS011;7759;52.528;13.346;2023-03-21T01:53:21;7.70;;;5.57;;
15317;SDS011;7759;52.528;13.346;2023-03-21T01:55:52;12.73;;;8.00;;
15317;SDS011;7759;52.528;13.346;2023-03-21T01:58:18;11.70;;;7.37;;
15317;SDS011;7759;52.528;13.346;2023-03-21T02:00:45;8.10;;;6.83;;
15317;SDS011;7759;52.528;13.346;2023-03-21T02:03:10;9.13;;;6.80;;
15317;SDS011;7759;52.528;13.346;2023-03-21T02:05:51;9.50;;;7.20;;
15317;SDS011;7759;52.528;13.346;2023-03-21T02:08:19;10.70;;;6.57;;
15317;SDS011;7759;52.528;13.346;2023-03-21T02:10:46;7.67;;;5.90;;
15317;SDS011;7759;52.528;13.346;2023-03-21T02:13:13;13.23;;;9.30;;
15317;SDS011;7759;52.528;13.346;2023-03-21T02:15:40;10.87;;;8.80;;
15317;SDS011;7759;52.528;13.346;2023-03-21T02:23:44;13.30;;;8.67;;
15317;SDS011;7759;52.528;13.346;2023-03-21T02:26:29;12.10;;;8.20;;
15317;SDS011;7759;52.528;13.346;2023-03-21T02:29:17;11.17;;;8.70;;
15317;SDS011;7759;52.528;13.346;2023-03-21T02:31:55;14.70;;;8.77;;
15317;SDS011;7759;52.528;13.346;2023-03-21T02:45:21;15.10;;;8.90;;
15317;SDS011;7759;52.528;13.346;2023-03-21T02:47:51;12.17;;;8.80;;
15317;SDS011;7759;52.528;13.346;2023-03-21T02:50:22;13.17;;;8.90;;
15317;SDS011;7759;52.528;13.346;2023-03-21T02:52:49;14.53;;;9.10;;
15317;SDS011;7759;52.528;13.346;2023-03-21T02:55:23;15.27;;;9.37;;
15317;SDS011;7759;52.528;13.346;2023-03-21T02:57:50;13.67;;;9.80;;
15317;SDS011;7759;52.528;13.346;2023-03-21T03:00:18;15.13;;;9.47;;
15317;SDS011;7759;52.528;13.346;2023-03-21T03:02:45;15.33;;;9.10;;
15317;SDS011;7759;52.528;13.346;2023-03-21T03:05:15;15.30;;;10.57;;
15317;SDS011;7759;52.528;13.346;2023-03-21T03:07:52;11.87;;;9.13;;
15317;SDS011;7759;52.528;13.346;2023-03-21T03:10:26;17.37;;;9.87;;
15317;SDS011;7759;52.528;13.346;2023-03-21T03:13:06;13.47;;;8.27;;
15317;SDS011;7759;52.528;13.346;2023-03-21T03:15:57;15.53;;;10.43;;
15317;SDS011;7759;52.528;13.346;2023-03-21T03:24:13;8.53;;;5.83;;
15317;SDS011;7759;52.528;13.346;2023-03-21T03:26:49;11.00;;;8.27;;
15317;SDS011;7759;52.528;13.346;2023-03-21T03:29:16;10.67;;;8.10;;
15317;SDS011;7759;52.528;13.346;2023-03-21T03:31:48;16.47;;;8.87;;
15317;SDS011;7759;52.528;13.346;2023-03-21T03:34:18;15.23;;;9.47;;
15317;SDS011;7759;52.528;13.346;2023-03-21T03:36:48;14.93;;;9.63;;
15317;SDS011;7759;52.528;13.346;2023-03-21T03:39:15;16.30;;;9.17;;
15317;SDS011;7759;52.528;13.346;2023-03-21T03:41:47;11.50;;;7.83;;
15317;SDS011;7759;52.528;13.346;2023-03-21T03:44:15;20.77;;;10.70;;
15317;SDS011;7759;52.528;13.346;2023-03-21T03:46:44;12.43;;;8.13;;
15317;SDS011;7759;52.528;13.346;2023-03-21T03:49:13;11.53;;;8.20;;
15317;SDS011;7759;52.528;13.346;2023-03-21T03:54:12;14.73;;;9.53;;
15317;SDS011;7759;52.528;13.346;2023-03-21T03:56:39;15.40;;;9.23;;
15317;SDS011;7759;52.528;13.346;2023-03-21T03:59:05;15.43;;;8.83;;
15317;SDS011;7759;52.528;13.346;2023-03-21T04:01:32;14.77;;;8.83;;
15317;SDS011;7759;52.528;13.346;2023-03-21T04:03:58;15.07;;;8.87;;
15317;SDS011;7759;52.528;13.346;2023-03-21T04:06:25;12.97;;;9.37;;
15317;SDS011;7759;52.528;13.346;2023-03-21T04:08:52;13.03;;;9.50;;
15317;SDS011;7759;52.528;13.346;2023-03-21T04:11:18;14.07;;;8.90;;
15317;SDS011;7759;52.528;13.346;2023-03-21T04:13:45;12.47;;;8.00;;
15317;SDS011;7759;52.528;13.346;2023-03-21T04:16:11;10.97;;;8.13;;
15317;SDS011;7759;52.528;13.346;2023-03-21T04:18:38;16.17;;;9.47;;
15317;SDS011;7759;52.528;13.346;2023-03-21T04:21:10;15.07;;;8.67;;
15317;SDS011;7759;52.528;13.346;2023-03-21T04:23:37;11.63;;;7.70;;
15317;SDS011;7759;52.528;13.346;2023-03-21T04:26:03;14.50;;;8.97;;
15317;SDS011;7759;52.528;13.346;2023-03-21T04:28:30;15.00;;;8.73;;
15317;SDS011;7759;52.528;13.346;2023-03-21T04:30:57;11.97;;;8.33;;
15317;SDS011;7759;52.528;13.346;2023-03-21T04:33:23;12.13;;;8.80;;
15317;SDS011;7759;52.528;13.346;2023-03-21T04:35:50;13.73;;;8.87;;
15317;SDS011;7759;52.528;13.346;2023-03-21T04:38:20;17.60;;;10.07;;
15317;SDS011;7759;52.528;13.346;2023-03-21T04:40:45;16.03;;;9.30;;
15317;SDS011;7759;52.528;13.346;2023-03-21T04:43:11;9.77;;;6.43;;
15317;SDS011;7759;52.528;13.346;2023-03-21T04:45:37;13.57;;;9.67;;
15317;SDS011;7759;52.528;13.346;2023-03-21T04:48:03;11.27;;;8.07;;
15317;SDS011;7759;52.528;13.346;2023-03-21T04:50:29;15.13;;;9.03;;
15317;SDS011;7759;52.528;13.346;2023-03-21T04:52:56;15.37;;;9.83;;
15317;SDS011;7759;52.528;13.346;2023-03-21T04:55:22;18.07;;;10.30;;
15317;SDS011;7759;52.528;13.346;2023-03-21T04:57:50;19.77;;;8.90;;
15317;SDS011;7759;52.528;13.346;2023-03-21T05:00:16;14.67;;;8.67;;
15317;SDS011;7759;52.528;13.346;2023-03-21T05:02:43;15.20;;;8.67;;
15317;SDS011;7759;52.528;13.346;2023-03-21T05:05:09;18.97;;;9.83;;
15317;SDS011;7759;52.528;13.346;2023-03-21T05:07:39;14.17;;;8.47;;
15317;SDS011;7759;52.528;13.346;2023-03-21T05:10:06;11.93;;;7.97;;
15317;SDS011;7759;52.528;13.346;2023-03-21T05:12:33;17.93;;;11.03;;
15317;SDS011;7759;52.528;13.346;2023-03-21T05:14:59;15.07;;;8.40;;
15317;SDS011;7759;52.528;13.346;2023-03-21T05:17:24;14.80;;;8.10;;
15317;SDS011;7759;52.528;13.346;2023-03-21T05:19:52;13.33;;;8.53;;
15317;SDS011;7759;52.528;13.346;2023-03-21T05:22:20;16.67;;;8.67;;
15317;SDS011;7759;52.528;13.346;2023-03-21T05:24:48;12.97;;;8.90;;
15317;SDS011;7759;52.528;13.346;2023-03-21T05:27:17;14.07;;;8.77;;
15317;SDS011;7759;52.528;13.346;2023-03-21T05:32:30;18.00;;;9.83;;
15317;SDS011;7759;52.528;13.346;2023-03-21T05:34:56;16.07;;;8.50;;
15317;SDS011;7759;52.528;13.346;2023-03-21T05:37:22;15.33;;;9.13;;
15317;SDS011;7759;52.528;13.346;2023-03-21T05:39:48;13.80;;;8.77;;
15317;SDS011;7759;52.528;13.346;2023-03-21T05:42:14;14.13;;;8.93;;
15317;SDS011;7759;52.528;13.346;2023-03-21T05:44:42;18.37;;;10.77;;
15317;SDS011;7759;52.528;13.346;2023-03-21T05:47:08;17.77;;;11.00;;
15317;SDS011;7759;52.528;13.346;2023-03-21T05:49:34;19.80;;;9.90;;
15317;SDS011;7759;52.528;13.346;2023-03-21T05:52:00;12.17;;;7.77;;
15317;SDS011;7759;52.528;13.346;2023-03-21T05:54:25;17.47;;;10.10;;
15317;SDS011;7759;52.528;13.346;2023-03-21T05:56:51;17.30;;;10.87;;
15317;SDS011;7759;52.528;13.346;2023-03-21T05:59:17;17.37;;;10.03;;
15317;SDS011;7759;52.528;13.346;2023-03-21T06:01:43;14.13;;;8.87;;
15317;SDS011;7759;52.528;13.346;2023-03-21T06:04:09;18.33;;;9.73;;
15317;SDS011;7759;52.528;13.346;2023-03-21T06:06:35;14.27;;;8.60;;
15317;SDS011;7759;52.528;13.346;2023-03-21T06:09:01;17.33;;;8.60;;
15317;SDS011;7759;52.528;13.346;2023-03-21T06:11:31;16.80;;;9.33;;
15317;SDS011;7759;52.528;13.346;2023-03-21T06:13:57;20.03;;;10.20;;
15317;SDS011;7759;52.528;13.346;2023-03-21T06:16:23;15.33;;;9.30;;
15317;SDS011;7759;52.528;13.346;2023-03-21T06:18:49;17.53;;;9.37;;
15317;SDS011;7759;52.528;13.346;2023-03-21T06:21:15;23.07;;;11.83;;
15317;SDS011;7759;52.528;13.346;2023-03-21T06:23:41;17.07;;;9.97;;
15317;SDS011;7759;52.528;13.346;2023-03-21T06:26:07;16.83;;;9.23;;
15317;SDS011;7759;52.528;13.346;2023-03-21T06:28:33;19.03;;;9.90;;
15317;SDS011;7759;52.528;13.346;2023-03-21T06:30:59;17.07;;;9.33;;
15317;SDS011;7759;52.528;13.346;2023-03-21T06:33:25;26.03;;;9.90;;
15317;SDS011;7759;52.528;13.346;2023-03-21T06:35:52;20.50;;;11.27;;
15317;SDS011;7759;52.528;13.346;2023-03-21T06:38:18;14.67;;;9.47;;
15317;SDS011;7759;52.528;13.346;2023-03-21T06:40:45;15.57;;;9.40;;
15317;SDS011;7759;52.528;13.346;2023-03-21T06:43:11;17.10;;;9.23;;
15317;SDS011;7759;52.528;13.346;2023-03-21T06:45:36;19.07;;;9.90;;
15317;SDS011;7759;52.528;13.346;2023-03-21T06:48:02;17.00;;;9.50;;
15317;SDS011;7759;52.528;13.346;2023-03-21T06:50:28;19.03;;;10.20;;
15317;SDS011;7759;52.528;13.346;2023-03-21T06:52:54;16.83;;;9.73;;
15317;SDS011;7759;52.528;13.346;2023-03-21T06:55:21;15.37;;;9.37;;
15317;SDS011;7759;52.528;13.346;2023-03-21T06:57:50;18.80;;;9.57;;
15317;SDS011;7759;52.528;13.346;2023-03-21T07:00:16;18.70;;;10.10;;
15317;SDS011;7759;52.528;13.346;2023-03-21T07:02:42;19.13;;;10.43;;
15317;SDS011;7759;52.528;13.346;2023-03-21T07:05:08;18.67;;;10.00;;
15317;SDS011;7759;52.528;13.346;2023-03-21T07:07:34;15.17;;;10.07;;
15317;SDS011;7759;52.528;13.346;2023-03-21T07:10:00;17.57;;;9.93;;
15317;SDS011;7759;52.528;13.346;2023-03-21T07:12:29;20.63;;;10.37;;
15317;SDS011;7759;52.528;13.346;2023-03-21T07:15:00;18.30;;;9.57;;
15317;SDS011;7759;52.528;13.346;2023-03-21T07:17:25;18.80;;;10.07;;
15317;SDS011;7759;52.528;13.346;2023-03-21T07:19:51;16.90;;;9.93;;
15317;SDS011;7759;52.528;13.346;2023-03-21T07:22:17;18.30;;;10.70;;
15317;SDS011;7759;52.528;13.346;2023-03-21T07:24:43;16.20;;;9.67;;
15317;SDS011;7759;52.528;13.346;2023-03-21T07:27:12;22.23;;;11.20;;
15317;SDS011;7759;52.528;13.346;2023-03-21T07:29:38;19.73;;;10.97;;
15317;SDS011;7759;52.528;13.346;2023-03-21T07:32:04;14.70;;;8.97;;
15317;SDS011;7759;52.528;13.346;2023-03-21T07:34:30;20.30;;;11.37;;
15317;SDS011;7759;52.528;13.346;2023-03-21T07:36:57;20.70;;;11.30;;
15317;SDS011;7759;52.528;13.346;2023-03-21T07:39:23;17.53;;;9.97;;
15317;SDS011;7759;52.528;13.346;2023-03-21T07:41:50;17.40;;;9.93;;
15317;SDS011;7759;52.528;13.346;2023-03-21T07:44:15;18.53;;;11.37;;
15317;SDS011;7759;52.528;13.346;2023-03-21T07:46:41;20.00;;;10.57;;
15317;SDS011;7759;52.528;13.346;2023-03-21T07:49:07;16.00;;;10.20;;
15317;SDS011;7759;52.528;13.346;2023-03-21T07:51:34;22.77;;;10.97;;
15317;SDS011;7759;52.528;13.346;2023-03-21T07:54:00;15.53;;;9.60;;
15317;SDS011;7759;52.528;13.346;2023-03-21T07:56:27;15.03;;;8.57;;
15317;SDS011;7759;52.528;13.346;2023-03-21T07:58:53;10.77;;;6.90;;
15317;SDS011;7759;52.528;13.346;2023-03-21T08:01:19;17.67;;;9.93;;
15317;SDS011;7759;52.528;13.346;2023-03-21T08:03:45;18.73;;;10.30;;
15317;SDS011;7759;52.528;13.346;2023-03-21T08:06:12;17.37;;;10.07;;
15317;SDS011;7759;52.528;13.346;2023-03-21T08:08:38;17.90;;;9.43;;
15317;SDS011;7759;52.528;13.346;2023-03-21T08:11:04;21.40;;;10.30;;
15317;SDS011;7759;52.528;13.346;2023-03-21T08:13:30;20.70;;;10.10;;
15317;SDS011;7759;52.528;13.346;2023-03-21T08:15:56;15.77;;;9.47;;
15317;SDS011;7759;52.528;13.346;2023-03-21T08:18:21;14.80;;;9.30;;
15317;SDS011;7759;52.528;13.346;2023-03-21T08:20:51;17.90;;;10.33;;
15317;SDS011;7759;52.528;13.346;2023-03-21T08:23:17;19.13;;;10.60;;
15317;SDS011;7759;52.528;13.346;2023-03-21T08:25:43;16.30;;;9.47;;
15317;SDS011;7759;52.528;13.346;2023-03-21T08:28:09;16.37;;;9.63;;
15317;SDS011;7759;52.528;13.346;2023-03-21T08:30:35;15.60;;;9.33;;
15317;SDS011;7759;52.528;13.346;2023-03-21T08:33:02;20.63;;;10.27;;
15317;SDS011;7759;52.528;13.346;2023-03-21T08:35:29;19.53;;;10.13;;
15317;SDS011;7759;52.528;13.346;2023-03-21T08:37:55;15.37;;;9.27;;
15317;SDS011;7759;52.528;13.346;2023-03-21T08:40:21;15.30;;;9.57;;
15317;SDS011;7759;52.528;13.346;2023-03-21T08:42:47;17.13;;;9.30;;
15317;SDS011;7759;52.528;13.346;2023-03-21T08:45:14;14.73;;;9.00;;
15317;SDS011;7759;52.528;13.346;2023-03-21T08:47:40;14.23;;;8.10;;
15317;SDS011;7759;52.528;13.346;2023-03-21T08:50:07;19.33;;;9.70;;
15317;SDS011;7759;52.528;13.346;2023-03-21T08:52:35;18.53;;;9.77;;
15317;SDS011;7759;52.528;13.346;2023-03-21T08:55:02;16.87;;;8.87;;
15317;SDS011;7759;52.528;13.346;2023-03-21T08:57:29;16.53;;;9.53;;
15317;SDS011;7759;52.528;13.346;2023-03-21T08:59:55;14.37;;;8.40;;
15317;SDS011;7759;52.528;13.346;2023-03-21T09:02:21;15.20;;;9.13;;
15317;SDS011;7759;52.528;13.346;2023-03-21T09:04:46;18.20;;;10.10;;
15317;SDS011;7759;52.528;13.346;2023-03-21T09:07:12;17.50;;;8.27;;
15317;SDS011;7759;52.528;13.346;2023-03-21T09:09:41;16.37;;;8.57;;
15317;SDS011;7759;52.528;13.346;2023-03-21T09:12:07;16.30;;;8.83;;
15317;SDS011;7759;52.528;13.346;2023-03-21T09:14:33;13.90;;;8.87;;
15317;SDS011;7759;52.528;13.346;2023-03-21T09:16:59;14.93;;;8.63;;
15317;SDS011;7759;52.528;13.346;2023-03-21T09:19:25;14.57;;;8.83;;
15317;SDS011;7759;52.528;13.346;2023-03-21T09:21:52;13.80;;;8.77;;
15317;SDS011;7759;52.528;13.346;2023-03-21T09:24:19;11.97;;;8.27;;
15317;SDS011;7759;52.528;13.346;2023-03-21T09:26:45;17.70;;;9.37;;
15317;SDS011;7759;52.528;13.346;2023-03-21T09:29:14;13.23;;;7.83;;
15317;SDS011;7759;52.528;13.346;2023-03-21T09:31:41;18.23;;;9.83;;
15317;SDS011;7759;52.528;13.346;2023-03-21T09:34:07;14.60;;;9.03;;
15317;SDS011;7759;52.528;13.346;2023-03-21T09:36:33;17.57;;;8.93;;
15317;SDS011;7759;52.528;13.346;2023-03-21T09:38:59;13.70;;;7.83;;
15317;SDS011;7759;52.528;13.346;2023-03-21T09:41:31;15.47;;;9.07;;
15317;SDS011;7759;52.528;13.346;2023-03-21T09:44:11;16.27;;;9.73;;
15317;SDS011;7759;52.528;13.346;2023-03-21T09:46:57;15.03;;;8.00;;
15317;SDS011;7759;52.528;13.346;2023-03-21T09:49:34;13.93;;;8.33;;
15317;SDS011;7759;52.528;13.346;2023-03-21T09:52:09;15.90;;;8.27;;
15317;SDS011;7759;52.528;13.346;2023-03-21T09:54:38;16.50;;;10.03;;
15317;SDS011;7759;52.528;13.346;2023-03-21T09:57:13;13.40;;;8.37;;
15317;SDS011;7759;52.528;13.346;2023-03-21T09:59:43;15.27;;;9.00;;
15317;SDS011;7759;52.528;13.346;2023-03-21T10:02:18;14.57;;;7.47;;
15317;SDS011;7759;52.528;13.346;2023-03-21T10:04:45;17.67;;;7.63;;
15317;SDS011;7759;52.528;13.346;2023-03-21T10:07:11;14.90;;;8.93;;
15317;SDS011;7759;52.528;13.346;2023-03-21T10:09:42;17.50;;;9.10;;
15317;SDS011;7759;52.528;13.346;2023-03-21T10:12:13;14.07;;;8.07;;
15317;SDS011;7759;52.528;13.346;2023-03-21T10:14:41;12.30;;;7.70;;
15317;SDS011;7759;52.528;13.346;2023-03-21T10:17:25;12.40;;;7.70;;
15317;SDS011;7759;52.528;13.346;2023-03-21T10:19:56;9.80;;;6.83;;
15317;SDS011;7759;52.528;13.346;2023-03-21T10:22:23;14.87;;;6.97;;
15317;SDS011;7759;52.528;13.346;2023-03-21T10:24:49;15.70;;;8.37;;
15317;SDS011;7759;52.528;13.346;2023-03-21T10:27:15;14.20;;;8.87;;
15317;SDS011;7759;52.528;13.346;2023-03-21T10:29:42;14.30;;;8.43;;
15317;SDS011;7759;52.528;13.346;2023-03-21T10:32:09;15.17;;;8.27;;
15317;SDS011;7759;52.528;13.346;2023-03-21T10:34:48;14.67;;;9.07;;
15317;SDS011;7759;52.528;13.346;2023-03-21T10:37:15;14.83;;;8.70;;
15317;SDS011;7759;52.528;13.346;2023-03-21T10:39:42;14.37;;;8.50;;
15317;SDS011;7759;52.528;13.346;2023-03-21T10:42:14;14.33;;;8.40;;
15317;SDS011;7759;52.528;13.346;2023-03-21T10:44:42;14.20;;;7.93;;
15317;SDS011;7759;52.528;13.346;2023-03-21T10:47:11;19.00;;;9.33;;
15317;SDS011;7759;52.528;13.346;2023-03-21T10:49:37;15.23;;;8.57;;
15317;SDS011;7759;52.528;13.346;2023-03-21T10:52:04;16.10;;;8.63;;
15317;SDS011;7759;52.528;13.346;2023-03-21T10:54:32;14.50;;;8.87;;
15317;SDS011;7759;52.528;13.346;2023-03-21T10:57:02;13.87;;;7.87;;
15317;SDS011;7759;52.528;13.346;2023-03-21T10:59:34;16.10;;;8.93;;
15317;SDS011;7759;52.528;13.346;2023-03-21T11:02:01;13.83;;;7.63;;
15317;SDS011;7759;52.528;13.346;2023-03-21T11:04:27;14.43;;;7.23;;
15317;SDS011;7759;52.528;13.346;2023-03-21T11:06:55;16.63;;;9.57;;
15317;SDS011;7759;52.528;13.346;2023-03-21T11:09:22;16.17;;;8.53;;
15317;SDS011;7759;52.528;13.346;2023-03-21T11:14:38;20.07;;;8.87;;
15317;SDS011;7759;52.528;13.346;2023-03-21T11:19:48;12.23;;;7.77;;
15317;SDS011;7759;52.528;13.346;2023-03-21T11:22:14;18.03;;;6.40;;
15317;SDS011;7759;52.528;13.346;2023-03-21T11:24:41;14.43;;;7.23;;
15317;SDS011;7759;52.528;13.346;2023-03-21T11:27:09;14.07;;;7.13;;
15317;SDS011;7759;52.528;13.346;2023-03-21T11:29:35;11.83;;;6.83;;
15317;SDS011;7759;52.528;13.346;2023-03-21T11:32:13;11.37;;;5.80;;
15317;SDS011;7759;52.528;13.346;2023-03-21T11:34:49;13.53;;;7.47;;
15317;SDS011;7759;52.528;13.346;2023-03-21T11:37:25;9.57;;;6.13;;
15317;SDS011;7759;52.528;13.346;2023-03-21T11:39:56;11.00;;;5.80;;
15317;SDS011;7759;52.528;13.346;2023-03-21T11:42:30;14.03;;;7.17;;
15317;SDS011;7759;52.528;13.346;2023-03-21T11:45:01;9.33;;;5.57;;
15317;SDS011;7759;52.528;13.346;2023-03-21T11:47:27;7.00;;;4.37;;
15317;SDS011;7759;52.528;13.346;2023-03-21T11:49:53;12.57;;;7.23;;
15317;SDS011;7759;52.528;13.346;2023-03-21T11:52:40;6.63;;;4.03;;
15317;SDS011;7759;52.528;13.346;2023-03-21T11:55:10;12.07;;;6.47;;
15317;SDS011;7759;52.528;13.346;2023-03-21T11:57:46;9.97;;;6.43;;
15317;SDS011;7759;52.528;13.346;2023-03-21T12:00:18;9.00;;;5.20;;
15317;SDS011;7759;52.528;13.346;2023-03-21T12:05:33;9.30;;;5.83;;
15317;SDS011;7759;52.528;13.346;2023-03-21T12:08:08;10.47;;;6.23;;
15317;SDS011;7759;52.528;13.346;2023-03-21T12:13:35;12.17;;;6.63;;
15317;SDS011;7759;52.528;13.346;2023-03-21T12:18:58;11.00;;;6.37;;
15317;SDS011;7759;52.528;13.346;2023-03-21T12:21:59;8.37;;;5.63;;
15317;SDS011;7759;52.528;13.346;2023-03-21T12:24:25;6.57;;;5.07;;
15317;SDS011;7759;52.528;13.346;2023-03-21T12:26:59;7.33;;;5.20;;
15317;SDS011;7759;52.528;13.346;2023-03-21T12:29:32;9.87;;;5.57;;
15317;SDS011;7759;52.528;13.346;2023-03-21T12:32:16;9.27;;;6.47;;
15317;SDS011;7759;52.528;13.346;2023-03-21T12:34:52;11.17;;;6.33;;
15317;SDS011;7759;52.528;13.346;2023-03-21T12:37:42;8.47;;;5.60;;
15317;SDS011;7759;52.528;13.346;2023-03-21T12:40:38;10.43;;;5.90;;
15317;SDS011;7759;52.528;13.346;2023-03-21T12:43:23;11.23;;;6.77;;
15317;SDS011;7759;52.528;13.346;2023-03-21T12:45:47;13.07;;;7.00;;
15317;SDS011;7759;52.528;13.346;2023-03-21T12:48:21;10.20;;;5.87;;
15317;SDS011;7759;52.528;13.346;2023-03-21T12:50:49;9.47;;;5.80;;
15317;SDS011;7759;52.528;13.346;2023-03-21T12:55:49;9.87;;;6.17;;
15317;SDS011;7759;52.528;13.346;2023-03-21T12:58:15;13.63;;;6.67;;
15317;SDS011;7759;52.528;13.346;2023-03-21T13:00:44;13.47;;;6.70;;
15317;SDS011;7759;52.528;13.346;2023-03-21T13:03:13;10.87;;;6.50;;
15317;SDS011;7759;52.528;13.346;2023-03-21T13:10:59;9.30;;;5.67;;
15317;SDS011;7759;52.528;13.346;2023-03-21T13:13:30;11.03;;;6.10;;
15317;SDS011;7759;52.528;13.346;2023-03-21T13:16:08;13.13;;;6.67;;
15317;SDS011;7759;52.528;13.346;2023-03-21T13:18:53;9.70;;;5.20;;
15317;SDS011;7759;52.528;13.346;2023-03-21T13:21:44;13.87;;;7.20;;
15317;SDS011;7759;52.528;13.346;2023-03-21T13:29:25;7.23;;;4.53;;
15317;SDS011;7759;52.528;13.346;2023-03-21T13:31:53;6.70;;;4.20;;
15317;SDS011;7759;52.528;13.346;2023-03-21T13:34:20;7.60;;;4.47;;
15317;SDS011;7759;52.528;13.346;2023-03-21T13:36:47;7.77;;;5.27;;
15317;SDS011;7759;52.528;13.346;2023-03-21T13:39:18;8.03;;;5.17;;
15317;SDS011;7759;52.528;13.346;2023-03-21T13:41:45;13.70;;;7.20;;
15317;SDS011;7759;52.528;13.346;2023-03-21T13:46:42;7.20;;;4.43;;
15317;SDS011;7759;52.528;13.346;2023-03-21T13:51:45;8.47;;;4.60;;
15317;SDS011;7759;52.528;13.346;2023-03-21T13:59:11;5.70;;;3.10;;
15317;SDS011;7759;52.528;13.346;2023-03-21T14:01:38;3.83;;;2.80;;
15317;SDS011;7759;52.528;13.346;2023-03-21T14:04:09;8.30;;;4.47;;
15317;SDS011;7759;52.528;13.346;2023-03-21T14:09:07;5.93;;;3.87;;
15317;SDS011;7759;52.528;13.346;2023-03-21T14:11:34;7.83;;;5.17;;
15317;SDS011;7759;52.528;13.346;2023-03-21T14:14:01;5.87;;;4.40;;
15317;SDS011;7759;52.528;13.346;2023-03-21T14:16:27;7.10;;;4.20;;
15317;SDS011;7759;52.528;13.346;2023-03-21T14:19:03;6.60;;;4.10;;
15317;SDS011;7759;52.528;13.346;2023-03-21T14:21:34;7.80;;;4.57;;
15317;SDS011;7759;52.528;13.346;2023-03-21T14:24:02;6.83;;;4.27;;
15317;SDS011;7759;52.528;13.346;2023-03-21T14:26:29;7.33;;;4.87;;
15317;SDS011;7759;52.528;13.346;2023-03-21T14:28:56;7.13;;;4.30;;
15317;SDS011;7759;52.528;13.346;2023-03-21T14:31:22;8.53;;;4.53;;
15317;SDS011;7759;52.528;13.346;2023-03-21T14:33:52;5.77;;;3.70;;
15317;SDS011;7759;52.528;13.346;2023-03-21T14:36:23;6.30;;;3.67;;
15317;SDS011;7759;52.528;13.346;2023-03-21T14:38:53;10.30;;;4.47;;
15317;SDS011;7759;52.528;13.346;2023-03-21T14:41:21;4.90;;;3.83;;
15317;SDS011;7759;52.528;13.346;2023-03-21T14:46:32;6.23;;;4.07;;
15317;SDS011;7759;52.528;13.346;2023-03-21T14:49:08;4.03;;;2.80;;
15317;SDS011;7759;52.528;13.346;2023-03-21T14:51:35;7.87;;;4.10;;
15317;SDS011;7759;52.528;13.346;2023-03-21T14:54:01;24.47;;;14.00;;
15317;SDS011;7759;52.528;13.346;2023-03-21T14:56:26;9.60;;;5.43;;
15317;SDS011;7759;52.528;13.346;2023-03-21T14:58:53;6.43;;;4.53;;
15317;SDS011;7759;52.528;13.346;2023-03-21T15:01:27;6.50;;;4.20;;
15317;SDS011;7759;52.528;13.346;2023-03-21T15:03:53;8.57;;;4.90;;
15317;SDS011;7759;52.528;13.346;2023-03-21T15:06:19;6.43;;;4.13;;
15317;SDS011;7759;52.528;13.346;2023-03-21T15:08:58;7.20;;;4.30;;
15317;SDS011;7759;52.528;13.346;2023-03-21T15:11:31;6.90;;;4.57;;
15317;SDS011;7759;52.528;13.346;2023-03-21T15:14:01;5.57;;;4.43;;
15317;SDS011;7759;52.528;13.346;2023-03-21T15:16:28;6.07;;;4.63;;
15317;SDS011;7759;52.528;13.346;2023-03-21T15:18:56;7.60;;;4.23;;
15317;SDS011;7759;52.528;13.346;2023-03-21T15:21:22;5.03;;;4.17;;
15317;SDS011;7759;52.528;13.346;2023-03-21T15:23:52;10.43;;;5.40;;
15317;SDS011;7759;52.528;13.346;2023-03-21T15:26:20;7.30;;;4.30;;
15317;SDS011;7759;52.528;13.346;2023-03-21T15:28:47;8.33;;;4.97;;
15317;SDS011;7759;52.528;13.346;2023-03-21T15:31:18;5.57;;;3.87;;
15317;SDS011;7759;52.528;13.346;2023-03-21T15:33:46;6.23;;;4.13;;
15317;SDS011;7759;52.528;13.346;2023-03-21T15:36:17;5.97;;;4.07;;
15317;SDS011;7759;52.528;13.346;2023-03-21T15:38:43;9.27;;;5.43;;
15317;SDS011;7759;52.528;13.346;2023-03-21T15:41:13;9.77;;;5.37;;
15317;SDS011;7759;52.528;13.346;2023-03-21T15:43:40;5.60;;;3.90;;
15317;SDS011;7759;52.528;13.346;2023-03-21T15:46:12;5.37;;;4.00;;
15317;SDS011;7759;52.528;13.346;2023-03-21T15:48:38;7.83;;;4.47;;
15317;SDS011;7759;52.528;13.346;2023-03-21T15:51:05;6.20;;;3.63;;
15317;SDS011;7759;52.528;13.346;2023-03-21T15:53:31;7.13;;;4.93;;
15317;SDS011;7759;52.528;13.346;2023-03-21T15:55:58;5.67;;;3.73;;
15317;SDS011;7759;52.528;13.346;2023-03-21T15:58:35;7.50;;;4.27;;